Time;durP1;ratioP1;P1;durP2;ratioP2;P2;SDS_P1;SDS_P2;PMS_P1;PMS_P2;Temp;Humidity;BMP_temperature;BMP_pressure;BME280_temperature;BME280_humidity;BME280_pressure;Samples;Min_cycle;Max_cycle;Signal;HPM_P1;HPM_P2
2022/08/15 00:01:20;;;;;;;;;;;25.30;67.60;;;;;;5115528;28;19907;-75
2022/08/15 00:03:47;;;;;;;;;;;25.20;68.10;;;;;;5114995;28;19964;-75
2022/08/15 00:06:21;;;;;;;;;;;25.20;68.20;;;;;;5115002;28;20016;-74
2022/08/15 00:08:49;;;;;;;;;;;25.10;68.00;;;;;;5114857;28;20277;-74
2022/08/15 00:11:16;;;;;;;;;;;25.10;66.60;;;;;;5114622;28;20382;-74
2022/08/15 00:13:42;;;;;;;;;;;25.10;68.20;;;;;;5114985;28;19912;-75
2022/08/15 00:16:08;;;;;;;;;;;25.10;68.20;;;;;;5114828;28;19915;-74
2022/08/15 00:18:33;;;;;;;;;;;25.00;68.00;;;;;;5114863;28;19907;-75
2022/08/15 00:20:59;;;;;;;;;;;25.00;67.90;;;;;;5114722;28;19908;-74
2022/08/15 00:23:29;;;;;;;;;;;24.90;67.40;;;;;;5114585;28;20261;-75
2022/08/15 00:25:57;;;;;;;;;;;24.90;67.80;;;;;;5114549;28;19998;-75
2022/08/15 00:28:24;;;;;;;;;;;24.90;68.90;;;;;;5115188;28;19908;-75
2022/08/15 00:30:50;;;;;;;;;;;24.90;67.70;;;;;;5114694;28;19912;-75
2022/08/15 00:33:15;;;;;;;;;;;24.80;67.40;;;;;;5114934;28;19922;-75
2022/08/15 00:35:42;;;;;;;;;;;24.80;67.70;;;;;;5114497;28;19919;-74
2022/08/15 00:38:21;;;;;;;;;;;24.90;68.90;;;;;;5114695;28;19912;-75
2022/08/15 00:43:41;;;;;;;;;;;24.80;68.40;;;;;;5114913;28;20415;-75
2022/08/15 00:46:08;;;;;;;;;;;24.80;68.80;;;;;;5117021;28;19939;-75
2022/08/15 00:48:42;;;;;;;;;;;24.70;68.70;;;;;;5117657;28;19985;-75
2022/08/15 00:51:17;;;;;;;;;;;24.70;67.30;;;;;;5119078;28;19919;-75
2022/08/15 00:53:48;;;;;;;;;;;24.70;67.60;;;;;;5118875;28;19919;-75
2022/08/15 00:56:15;;;;;;;;;;;24.80;68.00;;;;;;5118801;28;19961;-74
2022/08/15 00:58:42;;;;;;;;;;;24.80;67.90;;;;;;5119122;28;19961;-73
2022/08/15 01:01:08;;;;;;;;;;;24.90;67.50;;;;;;5117975;28;19914;-75
2022/08/15 01:03:35;;;;;;;;;;;24.80;68.60;;;;;;5118433;28;19919;-74
2022/08/15 01:06:02;;;;;;;;;;;24.80;68.30;;;;;;5117433;28;19920;-75
2022/08/15 01:08:30;;;;;;;;;;;24.80;67.90;;;;;;5118739;28;19915;-74
2022/08/15 01:10:57;;;;;;;;;;;24.80;68.00;;;;;;5118437;28;19941;-74
2022/08/15 01:13:23;;;;;;;;;;;24.80;67.90;;;;;;5118172;28;19965;-75
2022/08/15 01:15:48;;;;;;;;;;;24.90;68.00;;;;;;5118070;28;19908;-74
2022/08/15 01:18:14;;;;;;;;;;;24.90;68.40;;;;;;5117504;28;19908;-75
2022/08/15 01:20:41;;;;;;;;;;;24.80;67.70;;;;;;5118295;28;20414;-74
2022/08/15 01:23:22;;;;;;;;;;;24.90;67.50;;;;;;5118235;28;19960;-75
2022/08/15 01:25:59;;;;;;;;;;;24.90;68.00;;;;;;5117847;28;19908;-74
2022/08/15 01:28:30;;;;;;;;;;;24.90;68.10;;;;;;5118073;28;19911;-74
2022/08/15 01:31:00;;;;;;;;;;;24.90;67.60;;;;;;5117924;28;20053;-75
2022/08/15 01:33:26;;;;;;;;;;;24.80;67.50;;;;;;5116693;28;19916;-75
2022/08/15 01:35:54;;;;;;;;;;;24.90;67.70;;;;;;5118195;28;19915;-75
2022/08/15 01:38:23;;;;;;;;;;;24.90;67.70;;;;;;5117994;28;20009;-78
2022/08/15 01:40:51;;;;;;;;;;;24.80;67.70;;;;;;5117580;28;20289;-75
2022/08/15 01:43:19;;;;;;;;;;;24.80;67.60;;;;;;5117841;28;19915;-75
2022/08/15 01:45:45;;;;;;;;;;;24.80;68.00;;;;;;5118119;28;19915;-75
2022/08/15 01:48:15;;;;;;;;;;;24.70;68.10;;;;;;5117862;28;19909;-75
2022/08/15 01:50:51;;;;;;;;;;;24.70;68.20;;;;;;5117721;28;19911;-74
2022/08/15 01:53:20;;;;;;;;;;;24.70;68.30;;;;;;5116079;28;19912;-75
2022/08/15 01:55:48;;;;;;;;;;;24.70;68.20;;;;;;5117634;28;19912;-75
2022/08/15 01:58:15;;;;;;;;;;;24.70;68.10;;;;;;5116586;28;19961;-75
2022/08/15 02:00:48;;;;;;;;;;;24.70;68.30;;;;;;5117342;28;19907;-75
2022/08/15 02:03:14;;;;;;;;;;;24.70;68.30;;;;;;5116304;28;19908;-75
2022/08/15 02:05:39;;;;;;;;;;;24.80;67.60;;;;;;5117355;28;19920;-75
2022/08/15 02:08:05;;;;;;;;;;;24.80;67.70;;;;;;5117243;28;19916;-75
2022/08/15 02:10:31;;;;;;;;;;;24.80;67.70;;;;;;5117183;28;19912;-75
2022/08/15 02:12:56;;;;;;;;;;;24.90;67.40;;;;;;5117571;28;19964;-75
2022/08/15 02:15:22;;;;;;;;;;;24.90;67.70;;;;;;5117302;28;20366;-75
2022/08/15 02:17:48;;;;;;;;;;;25.00;67.10;;;;;;5115965;28;19960;-76
2022/08/15 02:20:15;;;;;;;;;;;25.00;67.20;;;;;;5117160;28;19907;-74
2022/08/15 02:22:41;;;;;;;;;;;25.10;67.00;;;;;;5116788;28;19915;-75
2022/08/15 02:25:07;;;;;;;;;;;25.10;67.30;;;;;;5117024;28;19915;-74
2022/08/15 02:27:34;;;;;;;;;;;25.10;66.90;;;;;;5116829;28;20366;-74
2022/08/15 02:30:00;;;;;;;;;;;25.10;66.70;;;;;;5116855;28;19908;-75
2022/08/15 02:32:26;;;;;;;;;;;25.20;66.50;;;;;;5116872;28;20254;-75
2022/08/15 02:34:52;;;;;;;;;;;25.20;66.50;;;;;;5116833;28;19919;-75
2022/08/15 02:37:18;;;;;;;;;;;25.20;66.50;;;;;;5117220;28;19912;-74
2022/08/15 02:39:45;;;;;;;;;;;25.30;66.40;;;;;;5117037;28;19994;-75
2022/08/15 02:42:12;;;;;;;;;;;25.30;66.10;;;;;;5116757;28;19908;-72
2022/08/15 02:44:38;;;;;;;;;;;25.30;66.10;;;;;;5115608;28;19907;-75
2022/08/15 02:47:03;;;;;;;;;;;25.40;66.00;;;;;;5116424;28;20409;-75
2022/08/15 02:49:29;;;;;;;;;;;25.40;65.90;;;;;;5116299;28;19907;-75
2022/08/15 02:51:56;;;;;;;;;;;25.40;65.70;;;;;;5116313;28;19974;-74
2022/08/15 02:54:23;;;;;;;;;;;25.40;65.70;;;;;;5115512;28;19952;-75
2022/08/15 02:56:49;;;;;;;;;;;25.40;65.50;;;;;;5116361;28;19957;-75
2022/08/15 02:59:14;;;;;;;;;;;25.40;65.50;;;;;;5116286;28;19996;-75
2022/08/15 03:01:41;;;;;;;;;;;25.40;65.50;;;;;;5116012;28;19907;-75
2022/08/15 03:04:08;;;;;;;;;;;25.40;65.40;;;;;;5115906;28;19984;-75
2022/08/15 03:06:34;;;;;;;;;;;25.40;65.50;;;;;;5115893;28;19927;-75
2022/08/15 03:09:02;;;;;;;;;;;25.50;65.40;;;;;;5114988;28;19908;-74
2022/08/15 03:11:29;;;;;;;;;;;25.50;65.40;;;;;;5116108;28;20304;-75
2022/08/15 03:13:54;;;;;;;;;;;25.50;65.20;;;;;;5115872;28;20014;-75
2022/08/15 03:16:20;;;;;;;;;;;25.60;65.10;;;;;;5114650;28;19958;-74
2022/08/15 03:18:46;;;;;;;;;;;25.60;65.10;;;;;;5115707;28;19912;-76
2022/08/15 03:21:16;;;;;;;;;;;25.60;65.10;;;;;;5116016;28;20285;-74
2022/08/15 03:23:48;;;;;;;;;;;25.60;65.10;;;;;;5116195;28;19915;-78
2022/08/15 03:26:15;;;;;;;;;;;25.60;65.10;;;;;;5116008;28;19908;-76
2022/08/15 03:28:41;;;;;;;;;;;25.60;64.90;;;;;;5115937;28;20269;-74
2022/08/15 03:31:07;;;;;;;;;;;25.60;64.80;;;;;;5115640;28;19912;-75
2022/08/15 03:33:34;;;;;;;;;;;25.60;64.80;;;;;;5115693;28;19912;-75
2022/08/15 03:36:00;;;;;;;;;;;25.70;64.80;;;;;;5114357;28;19972;-76
2022/08/15 03:38:25;;;;;;;;;;;25.70;64.90;;;;;;5115503;28;20331;-74
2022/08/15 03:40:51;;;;;;;;;;;25.40;64.60;;;;;;5114345;28;19912;-74
2022/08/15 03:43:19;;;;;;;;;;;25.70;64.80;;;;;;5115516;28;20006;-74
2022/08/15 03:45:46;;;;;;;;;;;25.70;64.70;;;;;;5115145;28;20362;-74
2022/08/15 03:48:11;;;;;;;;;;;25.80;64.70;;;;;;5115844;28;19961;-75
2022/08/15 03:50:37;;;;;;;;;;;25.80;64.60;;;;;;5114024;28;19912;-74
2022/08/15 03:53:03;;;;;;;;;;;25.80;64.60;;;;;;5114063;28;19912;-73
2022/08/15 03:55:30;;;;;;;;;;;25.80;64.20;;;;;;5115706;28;19915;-73
2022/08/15 03:57:56;;;;;;;;;;;25.90;64.30;;;;;;5115394;28;19919;-75
2022/08/15 04:00:25;;;;;;;;;;;26.00;64.40;;;;;;5114937;28;20277;-74
2022/08/15 04:02:51;;;;;;;;;;;26.00;64.20;;;;;;5115464;28;19957;-75
2022/08/15 04:05:17;;;;;;;;;;;26.00;64.00;;;;;;5115064;28;19920;-74
2022/08/15 04:07:42;;;;;;;;;;;26.00;64.00;;;;;;5115179;28;19908;-71
2022/08/15 04:10:10;;;;;;;;;;;26.00;64.10;;;;;;5113751;28;20361;-74
2022/08/15 04:12:38;;;;;;;;;;;26.00;64.00;;;;;;5114841;28;20388;-73
2022/08/15 04:15:05;;;;;;;;;;;26.00;63.70;;;;;;5114509;28;19950;-74
2022/08/15 04:17:31;;;;;;;;;;;26.10;63.80;;;;;;5113776;28;19908;-75
2022/08/15 04:19:57;;;;;;;;;;;26.10;63.80;;;;;;5114383;27;20269;-75
2022/08/15 04:22:28;;;;;;;;;;;26.10;63.60;;;;;;5114856;28;19914;-75
2022/08/15 04:24:53;;;;;;;;;;;26.10;63.50;;;;;;5114500;28;19915;-76
2022/08/15 04:27:19;;;;;;;;;;;26.10;63.50;;;;;;5114781;28;19911;-74
2022/08/15 04:29:45;;;;;;;;;;;26.10;63.40;;;;;;5114776;28;19915;-75
2022/08/15 04:32:13;;;;;;;;;;;26.10;63.40;;;;;;5114593;28;19919;-75
2022/08/15 04:34:39;;;;;;;;;;;26.10;63.40;;;;;;5114671;28;19964;-74
2022/08/15 04:37:04;;;;;;;;;;;26.10;63.20;;;;;;5114538;28;19919;-75
2022/08/15 04:39:30;;;;;;;;;;;26.10;63.30;;;;;;5113390;28;19946;-75
2022/08/15 04:41:58;;;;;;;;;;;26.10;63.50;;;;;;5113059;28;20006;-76
2022/08/15 04:44:24;;;;;;;;;;;26.10;63.30;;;;;;5114639;28;19908;-75
2022/08/15 04:46:51;;;;;;;;;;;26.20;64.00;;;;;;5113541;28;19908;-75
2022/08/15 04:49:16;;;;;;;;;;;26.20;63.00;;;;;;5114409;28;19911;-75
2022/08/15 04:51:42;;;;;;;;;;;26.20;62.90;;;;;;5114510;28;20396;-75
2022/08/15 04:54:08;;;;;;;;;;;26.20;63.00;;;;;;5113089;28;19912;-75
2022/08/15 04:56:33;;;;;;;;;;;26.30;62.80;;;;;;5114008;28;19908;-75
2022/08/15 04:58:59;;;;;;;;;;;26.30;62.60;;;;;;5114290;28;19907;-75
2022/08/15 05:01:24;;;;;;;;;;;26.30;62.30;;;;;;5114334;28;19998;-75
2022/08/15 05:03:50;;;;;;;;;;;26.30;62.60;;;;;;5114094;28;19990;-72
2022/08/15 05:06:15;;;;;;;;;;;26.30;62.70;;;;;;5113961;28;20338;-75
2022/08/15 05:08:41;;;;;;;;;;;26.40;62.80;;;;;;5114379;28;19908;-73
2022/08/15 05:11:08;;;;;;;;;;;26.40;62.40;;;;;;5112856;28;20365;-75
2022/08/15 05:13:35;;;;;;;;;;;26.40;62.20;;;;;;5114227;28;19923;-75
2022/08/15 05:16:01;;;;;;;;;;;26.40;61.90;;;;;;5114201;28;19907;-75
2022/08/15 05:18:27;;;;;;;;;;;26.40;62.20;;;;;;5114164;28;19908;-75
2022/08/15 05:20:53;;;;;;;;;;;26.50;61.60;;;;;;5114122;28;20243;-75
2022/08/15 05:23:20;;;;;;;;;;;26.40;62.10;;;;;;5114289;28;20281;-75
2022/08/15 05:25:48;;;;;;;;;;;26.40;61.70;;;;;;5113995;28;20313;-74
2022/08/15 05:28:14;;;;;;;;;;;26.40;61.90;;;;;;5114099;28;19908;-74
2022/08/15 05:30:40;;;;;;;;;;;26.40;62.10;;;;;;5114127;28;19964;-75
2022/08/15 05:33:13;;;;;;;;;;;26.40;61.90;;;;;;5116409;28;19981;-74
2022/08/15 05:35:43;;;;;;;;;;;26.40;61.50;;;;;;5118177;28;20366;-71
2022/08/15 05:38:11;;;;;;;;;;;26.40;61.80;;;;;;5117670;28;19912;-74
2022/08/15 05:40:43;;;;;;;;;;;26.40;61.70;;;;;;5118284;28;19951;-73
2022/08/15 05:43:18;;;;;;;;;;;26.40;61.70;;;;;;5118079;28;20277;-70
2022/08/15 05:46:04;;;;;;;;;;;26.40;62.10;;;;;;5116601;28;20357;-74
2022/08/15 05:48:32;;;;;;;;;;;26.50;62.30;;;;;;5113150;28;20000;-71
2022/08/15 05:51:07;;;;;;;;;;;26.50;62.10;;;;;;5117262;28;19957;-73
2022/08/15 05:53:39;;;;;;;;;;;26.50;62.20;;;;;;5117618;28;19935;-74
2022/08/15 05:56:11;;;;;;;;;;;26.50;62.20;;;;;;5116220;28;19908;-73
2022/08/15 05:58:42;;;;;;;;;;;26.50;62.20;;;;;;5116463;28;19908;-75
2022/08/15 06:01:12;;;;;;;;;;;26.50;62.30;;;;;;5117577;28;19931;-75
2022/08/15 06:03:39;;;;;;;;;;;26.40;62.40;;;;;;5116144;28;19946;-75
2022/08/15 06:06:10;;;;;;;;;;;26.40;62.50;;;;;;5117270;28;20002;-78
2022/08/15 06:08:40;;;;;;;;;;;26.40;62.70;;;;;;5117062;28;19935;-73
2022/08/15 06:11:10;;;;;;;;;;;26.30;62.80;;;;;;5117004;28;20273;-72
2022/08/15 06:13:48;;;;;;;;;;;26.30;62.70;;;;;;5115981;28;19920;-72
2022/08/15 06:16:25;;;;;;;;;;;26.20;62.90;;;;;;5116034;28;19907;-73
2022/08/15 06:18:52;;;;;;;;;;;26.20;63.00;;;;;;5117170;28;20365;-72
2022/08/15 06:21:24;;;;;;;;;;;26.20;63.00;;;;;;5117231;28;20266;-72
2022/08/15 06:23:54;;;;;;;;;;;26.20;63.00;;;;;;5117104;28;19911;-74
2022/08/15 06:26:38;;;;;;;;;;;26.20;63.10;;;;;;5116433;28;19991;-79
2022/08/15 06:29:09;;;;;;;;;;;26.10;63.10;;;;;;5116445;28;19907;-72
2022/08/15 06:31:39;;;;;;;;;;;26.10;63.00;;;;;;5116883;28;20365;-77
2022/08/15 06:34:24;;;;;;;;;;;26.10;63.20;;;;;;5116842;28;20277;-73
2022/08/15 06:36:59;;;;;;;;;;;26.00;63.40;;;;;;5116453;28;20254;-72
2022/08/15 06:39:34;;;;;;;;;;;26.00;63.30;;;;;;5116577;28;19907;-73
2022/08/15 06:42:04;;;;;;;;;;;26.10;63.30;;;;;;5116705;28;20000;-72
2022/08/15 06:44:31;;;;;;;;;;;26.10;63.30;;;;;;5116341;28;19927;-73
2022/08/15 06:47:03;;;;;;;;;;;26.20;63.20;;;;;;5116560;28;19936;-72
2022/08/15 06:49:31;;;;;;;;;;;26.30;63.20;;;;;;5116447;28;19908;-69
2022/08/15 06:51:57;;;;;;;;;;;26.30;63.00;;;;;;5115262;28;19955;-73
2022/08/15 06:54:25;;;;;;;;;;;26.40;63.00;;;;;;5116028;28;20318;-69
2022/08/15 06:56:55;;;;;;;;;;;26.40;62.80;;;;;;5116175;28;20002;-73
2022/08/15 06:59:36;;;;;;;;;;;26.30;62.70;;;;;;5116605;28;19907;-73
2022/08/15 07:02:20;;;;;;;;;;;26.30;62.60;;;;;;5116134;28;20022;-73
2022/08/15 07:04:58;;;;;;;;;;;26.30;62.70;;;;;;5115768;28;19911;-74
2022/08/15 07:07:42;;;;;;;;;;;26.30;62.80;;;;;;5116170;28;19908;-73
2022/08/15 07:10:07;;;;;;;;;;;26.40;62.70;;;;;;5115643;28;20281;-73
2022/08/15 07:12:56;;;;;;;;;;;26.50;62.60;;;;;;5115945;28;19911;-73
2022/08/15 07:15:41;;;;;;;;;;;26.50;62.70;;;;;;5095690;28;19911;-73
2022/08/15 07:18:09;;;;;;;;;;;26.60;62.60;;;;;;5115866;28;20006;-73
2022/08/15 07:20:34;;;;;;;;;;;26.60;62.50;;;;;;5115843;28;19920;-73
2022/08/15 07:23:13;;;;;;;;;;;26.60;62.50;;;;;;5114650;28;20124;-73
2022/08/15 07:25:44;;;;;;;;;;;26.60;62.30;;;;;;5114443;28;19908;-72
2022/08/15 07:28:09;;;;;;;;;;;26.70;62.50;;;;;;5114642;28;20370;-72
2022/08/15 07:30:44;;;;;;;;;;;26.80;62.40;;;;;;5115590;28;19965;-72
2022/08/15 07:33:26;;;;;;;;;;;26.80;62.10;;;;;;5115097;28;19912;-70
2022/08/15 07:35:57;;;;;;;;;;;26.90;62.10;;;;;;5115870;28;19912;-73
2022/08/15 07:38:28;;;;;;;;;;;26.90;62.00;;;;;;5114079;28;19959;-73
2022/08/15 07:41:10;;;;;;;;;;;27.00;61.70;;;;;;5115486;27;19907;-73
2022/08/15 07:43:36;;;;;;;;;;;26.90;61.60;;;;;;5115329;28;20381;-72
2022/08/15 07:46:04;;;;;;;;;;;27.00;62.10;;;;;;5115515;28;19908;-72
2022/08/15 07:48:30;;;;;;;;;;;27.00;61.00;;;;;;5115664;28;19970;-73
2022/08/15 07:51:05;;;;;;;;;;;26.90;61.20;;;;;;5113975;28;19915;-73
2022/08/15 07:53:31;;;;;;;;;;;26.90;61.30;;;;;;5115041;28;19912;-74
2022/08/15 07:56:10;;;;;;;;;;;26.90;61.50;;;;;;5114031;28;19965;-73
2022/08/15 07:58:35;;;;;;;;;;;26.90;61.40;;;;;;5113585;28;19908;-72
2022/08/15 08:01:21;;;;;;;;;;;26.90;61.20;;;;;;5114841;28;19907;-72
2022/08/15 08:04:05;;;;;;;;;;;26.90;60.80;;;;;;5114641;28;19912;-73
2022/08/15 08:06:45;;;;;;;;;;;26.90;61.00;;;;;;5114868;28;19926;-72
2022/08/15 08:09:30;;;;;;;;;;;26.90;61.10;;;;;;5114500;28;19961;-73
2022/08/15 08:12:07;;;;;;;;;;;27.00;61.30;;;;;;5114374;28;19916;-73
2022/08/15 08:14:41;;;;;;;;;;;27.00;60.10;;;;;;5114358;27;19973;-73
2022/08/15 08:17:13;;;;;;;;;;;27.00;60.80;;;;;;5114656;28;19908;-73
2022/08/15 08:19:54;;;;;;;;;;;27.00;60.60;;;;;;5114408;28;19915;-73
2022/08/15 08:22:29;;;;;;;;;;;27.00;60.20;;;;;;5114554;28;19907;-73
2022/08/15 08:25:06;;;;;;;;;;;27.00;60.50;;;;;;5114294;28;19943;-73
2022/08/15 08:27:44;;;;;;;;;;;27.00;60.00;;;;;;5114538;28;19986;-74
2022/08/15 08:30:33;;;;;;;;;;;26.80;60.40;;;;;;5114516;28;20007;-72
2022/08/15 08:33:02;;;;;;;;;;;26.80;60.50;;;;;;5107494;28;19915;-72
2022/08/15 08:35:30;;;;;;;;;;;26.80;60.80;;;;;;5114678;28;19912;-73
2022/08/15 08:38:08;;;;;;;;;;;26.80;60.90;;;;;;5113796;28;20352;-72
2022/08/15 08:43:41;;;;;;;;;;;26.80;61.40;;;;;;5114303;28;19962;-73
2022/08/15 08:46:21;;;;;;;;;;;26.80;61.70;;;;;;5114347;28;19914;-73
2022/08/15 08:48:47;;;;;;;;;;;26.90;61.60;;;;;;5114209;28;19914;-73
2022/08/15 08:51:16;;;;;;;;;;;27.00;61.40;;;;;;5113950;28;19912;-73
2022/08/15 08:53:50;;;;;;;;;;;27.10;60.70;;;;;;5114115;28;19990;-73
2022/08/15 08:56:21;;;;;;;;;;;27.20;61.10;;;;;;5112528;28;19965;-72
2022/08/15 08:58:48;;;;;;;;;;;27.30;60.70;;;;;;5114797;28;19951;-71
2022/08/15 09:01:17;;;;;;;;;;;27.30;60.90;;;;;;5113794;28;20327;-73
2022/08/15 09:03:47;;;;;;;;;;;27.40;60.90;;;;;;5113915;28;19908;-72
2022/08/15 09:06:15;;;;;;;;;;;27.40;60.10;;;;;;5113040;28;19920;-73
2022/08/15 09:08:43;;;;;;;;;;;27.50;60.30;;;;;;5117403;28;19914;-72
2022/08/15 09:11:24;;;;;;;;;;;27.50;59.60;;;;;;5117929;28;19912;-73
2022/08/15 09:13:49;;;;;;;;;;;27.50;60.10;;;;;;5118223;28;19965;-72
2022/08/15 09:16:24;;;;;;;;;;;27.50;60.20;;;;;;5117775;28;19912;-73
2022/08/15 09:19:01;;;;;;;;;;;27.50;59.90;;;;;;5117571;28;19969;-73
2022/08/15 09:21:27;;;;;;;;;;;27.60;59.90;;;;;;5117810;28;19908;-72
2022/08/15 09:23:54;;;;;;;;;;;27.60;60.00;;;;;;5118186;28;19908;-73
2022/08/15 09:26:40;;;;;;;;;;;27.70;59.90;;;;;;5117926;28;19939;-73
2022/08/15 09:29:10;;;;;;;;;;;27.80;60.10;;;;;;5117720;27;19916;-73
2022/08/15 09:31:36;;;;;;;;;;;27.90;59.60;;;;;;5117588;28;20048;-74
2022/08/15 09:34:02;;;;;;;;;;;27.90;59.30;;;;;;5118204;28;19911;-73
2022/08/15 09:36:37;;;;;;;;;;;27.90;59.00;;;;;;5117865;28;19954;-73
2022/08/15 09:39:06;;;;;;;;;;;28.00;59.30;;;;;;5117923;28;19908;-73
2022/08/15 09:41:51;;;;;;;;;;;28.00;59.70;;;;;;5117643;28;20460;-72
2022/08/15 09:44:28;;;;;;;;;;;28.10;59.70;;;;;;5117222;28;19911;-72
2022/08/15 09:47:13;;;;;;;;;;;28.20;59.80;;;;;;5117406;28;19907;-72
2022/08/15 09:49:45;;;;;;;;;;;28.20;59.10;;;;;;5117630;28;19912;-74
2022/08/15 09:52:31;;;;;;;;;;;28.20;58.90;;;;;;5116169;28;19933;-72
2022/08/15 09:55:12;;;;;;;;;;;28.30;59.20;;;;;;5117764;28;19981;-73
2022/08/15 09:57:45;;;;;;;;;;;28.30;59.50;;;;;;5099510;28;19908;-73
2022/08/15 10:00:16;;;;;;;;;;;28.30;59.20;;;;;;5117402;28;19986;-73
2022/08/15 10:02:44;;;;;;;;;;;28.40;59.10;;;;;;5117367;28;19908;-73
2022/08/15 10:05:32;;;;;;;;;;;28.40;58.70;;;;;;5116835;28;19919;-73
2022/08/15 10:07:59;;;;;;;;;;;28.40;58.20;;;;;;5117028;27;19908;-73
2022/08/15 10:10:31;;;;;;;;;;;28.50;58.20;;;;;;5115776;28;19908;-73
2022/08/15 10:13:13;;;;;;;;;;;28.50;58.80;;;;;;5117067;28;19912;-72
2022/08/15 10:15:43;;;;;;;;;;;28.50;58.60;;;;;;5116986;28;19914;-73
2022/08/15 10:18:20;;;;;;;;;;;28.50;58.30;;;;;;5116223;28;19908;-73
2022/08/15 10:20:49;;;;;;;;;;;28.50;58.20;;;;;;5116956;28;19947;-72
2022/08/15 10:23:15;;;;;;;;;;;28.50;58.10;;;;;;5116657;28;20366;-73
2022/08/15 10:25:48;;;;;;;;;;;28.50;58.40;;;;;;5115245;28;19915;-72
2022/08/15 10:28:14;;;;;;;;;;;28.50;57.40;;;;;;5115859;28;19919;-73
2022/08/15 10:30:44;;;;;;;;;;;28.50;58.10;;;;;;5116750;28;19911;-73
2022/08/15 10:33:26;;;;;;;;;;;28.50;58.10;;;;;;5116898;28;19912;-73
2022/08/15 10:35:55;;;;;;;;;;;28.60;58.30;;;;;;5115236;28;19911;-73
2022/08/15 10:38:25;;;;;;;;;;;28.60;57.90;;;;;;5115058;28;19916;-73
2022/08/15 10:40:57;;;;;;;;;;;28.60;57.30;;;;;;5116725;28;20006;-73
2022/08/15 10:43:29;;;;;;;;;;;28.60;57.70;;;;;;5116814;28;19908;-73
2022/08/15 10:45:54;;;;;;;;;;;28.70;57.70;;;;;;5115579;28;20258;-73
2022/08/15 10:48:24;;;;;;;;;;;28.80;57.80;;;;;;5115604;28;19908;-73
2022/08/15 10:51:00;;;;;;;;;;;28.80;57.00;;;;;;5116158;28;19958;-72
2022/08/15 10:53:27;;;;;;;;;;;28.80;57.50;;;;;;5117101;28;19960;-72
2022/08/15 10:56:05;;;;;;;;;;;28.80;57.70;;;;;;5116589;28;20379;-74
2022/08/15 10:58:32;;;;;;;;;;;28.80;57.70;;;;;;5116445;28;19953;-72
2022/08/15 11:01:08;;;;;;;;;;;28.80;56.90;;;;;;5116683;28;19912;-73
2022/08/15 11:03:38;;;;;;;;;;;28.90;57.40;;;;;;5114930;28;19996;-73
2022/08/15 11:06:06;;;;;;;;;;;28.90;57.70;;;;;;5115895;27;20116;-73
2022/08/15 11:08:32;;;;;;;;;;;29.00;57.90;;;;;;5116163;28;19911;-73
2022/08/15 11:11:04;;;;;;;;;;;29.10;57.60;;;;;;5115007;28;19912;-76
2022/08/15 11:13:31;;;;;;;;;;;29.10;57.60;;;;;;5115863;28;19911;-73
2022/08/15 11:15:58;;;;;;;;;;;29.10;57.60;;;;;;5114467;28;19912;-73
2022/08/15 11:18:29;;;;;;;;;;;29.10;57.50;;;;;;5115867;28;19908;-72
2022/08/15 11:20:57;;;;;;;;;;;29.20;56.90;;;;;;5115918;28;19908;-72
2022/08/15 11:23:39;;;;;;;;;;;29.20;57.50;;;;;;5115816;28;19908;-73
2022/08/15 11:26:06;;;;;;;;;;;29.20;57.60;;;;;;5115650;28;19907;-73
2022/08/15 11:28:33;;;;;;;;;;;29.20;57.50;;;;;;5115380;28;19908;-72
2022/08/15 11:31:06;;;;;;;;;;;29.30;57.60;;;;;;5114438;28;19912;-72
2022/08/15 11:33:42;;;;;;;;;;;29.30;57.50;;;;;;5114342;28;20002;-73
2022/08/15 11:36:14;;;;;;;;;;;29.30;57.60;;;;;;5115616;28;19908;-73
2022/08/15 11:38:44;;;;;;;;;;;29.30;57.50;;;;;;5115204;28;20365;-71
2022/08/15 11:41:17;;;;;;;;;;;29.40;57.60;;;;;;5115436;28;20380;-72
2022/08/15 11:43:43;;;;;;;;;;;29.40;57.50;;;;;;5115320;28;19908;-74
2022/08/15 11:46:09;;;;;;;;;;;29.40;57.50;;;;;;5097187;28;19908;-73
2022/08/15 11:48:38;;;;;;;;;;;29.50;57.60;;;;;;5115762;28;20354;-73
2022/08/15 11:51:09;;;;;;;;;;;29.50;57.40;;;;;;5114768;28;19987;-73
2022/08/15 11:53:37;;;;;;;;;;;29.60;57.50;;;;;;5114109;28;19912;-76
2022/08/15 11:56:03;;;;;;;;;;;29.60;57.40;;;;;;5115133;28;19994;-73
2022/08/15 11:58:31;;;;;;;;;;;29.60;57.30;;;;;;5115510;28;20425;-70
2022/08/15 12:00:59;;;;;;;;;;;29.60;57.30;;;;;;5115140;28;19994;-72
2022/08/15 12:03:25;;;;;;;;;;;29.60;57.10;;;;;;5115349;28;19908;-73
2022/08/15 12:06:11;;;;;;;;;;;29.60;57.10;;;;;;5116528;28;20323;-73
2022/08/15 12:08:36;;;;;;;;;;;29.60;57.20;;;;;;5112781;28;20277;-73
2022/08/15 12:11:04;;;;;;;;;;;29.60;57.20;;;;;;5113673;28;19922;-73
2022/08/15 12:13:30;;;;;;;;;;;29.60;57.20;;;;;;5114891;28;19957;-73
2022/08/15 12:15:55;;;;;;;;;;;29.60;57.20;;;;;;5114624;28;19912;-73
2022/08/15 12:18:22;;;;;;;;;;;29.60;57.20;;;;;;5114732;28;19908;-73
2022/08/15 12:20:59;;;;;;;;;;;29.50;57.10;;;;;;5114581;28;19947;-74
2022/08/15 12:23:25;;;;;;;;;;;29.50;55.80;;;;;;5113583;28;19950;-73
2022/08/15 12:25:55;;;;;;;;;;;29.40;56.70;;;;;;5114811;28;19989;-73
2022/08/15 12:28:21;;;;;;;;;;;29.40;57.00;;;;;;5113133;28;20337;-72
2022/08/15 12:30:47;;;;;;;;;;;29.40;56.90;;;;;;5114427;28;19959;-73
2022/08/15 12:33:13;;;;;;;;;;;29.40;56.80;;;;;;5114380;28;19911;-72
2022/08/15 12:35:39;;;;;;;;;;;29.30;56.70;;;;;;5114340;28;20273;-72
2022/08/15 12:38:05;;;;;;;;;;;29.30;56.50;;;;;;5113091;28;19923;-73
2022/08/15 12:40:31;;;;;;;;;;;29.30;56.60;;;;;;5114568;28;19908;-73
2022/08/15 12:42:56;;;;;;;;;;;29.30;56.70;;;;;;5114162;28;20393;-74
2022/08/15 12:45:22;;;;;;;;;;;29.30;56.70;;;;;;5114389;28;19907;-74
2022/08/15 12:47:48;;;;;;;;;;;29.30;56.60;;;;;;5113477;28;19924;-69
2022/08/15 12:50:14;;;;;;;;;;;29.20;56.60;;;;;;5113307;28;19914;-73
2022/08/15 12:52:41;;;;;;;;;;;29.30;56.70;;;;;;5114270;28;20358;-73
2022/08/15 12:55:07;;;;;;;;;;;29.20;56.50;;;;;;5113389;28;19915;-73
2022/08/15 12:57:33;;;;;;;;;;;29.20;56.70;;;;;;5114227;27;20026;-73
2022/08/15 12:59:59;;;;;;;;;;;29.30;56.60;;;;;;5114015;28;20373;-73
2022/08/15 13:02:25;;;;;;;;;;;29.30;56.50;;;;;;5112889;28;19907;-73
2022/08/15 13:04:52;;;;;;;;;;;29.30;56.60;;;;;;5112980;28;19914;-73
2022/08/15 13:07:19;;;;;;;;;;;29.40;56.60;;;;;;5114534;28;19920;-73
2022/08/15 13:09:45;;;;;;;;;;;29.40;56.40;;;;;;5114366;28;19990;-73
2022/08/15 13:12:11;;;;;;;;;;;29.50;56.50;;;;;;5114090;28;19964;-73
2022/08/15 13:14:37;;;;;;;;;;;29.60;56.40;;;;;;5113981;28;19990;-73
2022/08/15 13:17:03;;;;;;;;;;;29.70;56.40;;;;;;5113977;28;20000;-73
2022/08/15 13:19:30;;;;;;;;;;;29.90;56.50;;;;;;5112791;28;20374;-73
2022/08/15 13:24:40;;;;;;;;;;;30.20;56.30;;;;;;5114158;28;19981;-73
2022/08/15 13:27:06;;;;;;;;;;;30.40;56.20;;;;;;5113867;28;19943;-73
2022/08/15 13:29:33;;;;;;;;;;;30.60;55.10;;;;;;5113991;28;19958;-72
2022/08/15 13:32:00;;;;;;;;;;;30.80;55.90;;;;;;5112612;28;19911;-73
2022/08/15 13:34:25;;;;;;;;;;;31.10;56.40;;;;;;5112931;28;19912;-72
2022/08/15 13:36:51;;;;;;;;;;;31.40;55.70;;;;;;5114249;28;20030;-72
2022/08/15 13:39:20;;;;;;;;;;;31.80;56.20;;;;;;5113996;28;19908;-76
2022/08/15 13:41:45;;;;;;;;;;;32.10;55.10;;;;;;5113862;28;20002;-72
2022/08/15 13:44:11;;;;;;;;;;;32.30;54.60;;;;;;5114152;28;20401;-73
2022/08/15 13:46:37;;;;;;;;;;;32.60;55.30;;;;;;5113778;28;19939;-74
2022/08/15 13:49:03;;;;;;;;;;;32.80;52.70;;;;;;5113534;28;19933;-74
2022/08/15 13:51:30;;;;;;;;;;;32.70;53.10;;;;;;5113589;28;19912;-72
2022/08/15 13:53:59;;;;;;;;;;;32.70;52.20;;;;;;5115492;28;20003;-74
2022/08/15 13:56:25;;;;;;;;;;;32.60;51.80;;;;;;5117809;28;19919;-73
2022/08/15 13:58:50;;;;;;;;;;;32.40;53.10;;;;;;5117602;28;19908;-74
2022/08/15 14:01:21;;;;;;;;;;;32.30;53.60;;;;;;5117460;28;19912;-73
2022/08/15 14:03:50;;;;;;;;;;;32.20;54.20;;;;;;5117308;28;19916;-74
2022/08/15 14:06:15;;;;;;;;;;;32.30;53.80;;;;;;5116874;28;19920;-72
2022/08/15 14:08:45;;;;;;;;;;;32.40;54.30;;;;;;5116969;28;20270;-73
2022/08/15 14:11:11;;;;;;;;;;;32.50;53.70;;;;;;5115825;28;19912;-73
2022/08/15 14:13:39;;;;;;;;;;;32.60;53.70;;;;;;5116205;28;20450;-73
2022/08/15 14:16:04;;;;;;;;;;;32.70;53.30;;;;;;5117149;28;19912;-73
2022/08/15 14:18:35;;;;;;;;;;;32.80;52.70;;;;;;5116967;28;19912;-72
2022/08/15 14:21:01;;;;;;;;;;;32.80;53.60;;;;;;5116951;28;20350;-73
2022/08/15 14:23:27;;;;;;;;;;;32.90;53.10;;;;;;5116395;28;20349;-74
2022/08/15 14:25:52;;;;;;;;;;;32.90;53.00;;;;;;5117204;28;19908;-73
2022/08/15 14:28:18;;;;;;;;;;;32.90;52.90;;;;;;5116703;28;19951;-73
2022/08/15 14:30:44;;;;;;;;;;;32.90;53.10;;;;;;5116660;28;19914;-73
2022/08/15 14:33:10;;;;;;;;;;;32.70;52.90;;;;;;5116535;28;20273;-73
2022/08/15 14:35:36;;;;;;;;;;;32.60;53.00;;;;;;5116486;28;19912;-74
2022/08/15 14:38:03;;;;;;;;;;;32.50;53.00;;;;;;5116254;27;19934;-73